Byrd, Ohio
Current Conditions -  °F | °C
As of 10:35 AM on Thursday 30 Oct 2014 (Local Time) from KFGX Reporting Station
Overcast Overcast  
Wind Chill: 45°   Ceiling: 3900
Heat Index: 45°   Visibility: 10mi
Dew Point: 36°   Wind: 3mph
Humidity: 72%   Direction: 60°ENE
Pressure: 30.18"   Gusts: NA
Location:  38.8148°N, 83.7054°W
Report Text: KFGX 301435Z AUTO 06003KT 10SM OVC039 07/02 A3018 RMK AO2 T00720024
Loading
Personal Weather Stations






























Interactive Weather Map
Tropical Storm Tracking
New forecast layout! Learn more

10-Day Weather Forecast

Advertisements
Track Severe Weather on mobile